createdAt,value
2022-08-27T00:00:30.447Z,9.00
2022-08-27T00:02:59.290Z,13.00
2022-08-27T00:05:26.796Z,9.17
2022-08-27T00:07:54.408Z,8.40
2022-08-27T00:10:22.978Z,10.73
2022-08-27T00:12:50.493Z,8.57
2022-08-27T00:15:20.026Z,8.77
2022-08-27T00:17:47.699Z,9.50
2022-08-27T00:20:17.603Z,10.53
2022-08-27T00:22:45.177Z,7.53
2022-08-27T00:25:12.856Z,7.97
2022-08-27T00:27:40.731Z,7.27
2022-08-27T00:30:10.048Z,8.47
2022-08-27T00:32:38.751Z,6.90
2022-08-27T00:35:06.733Z,7.50
2022-08-27T00:37:35.989Z,8.33
2022-08-27T00:40:04.190Z,6.93
2022-08-27T00:42:31.752Z,8.87
2022-08-27T00:44:59.659Z,6.70
2022-08-27T00:47:28.532Z,6.47
2022-08-27T00:49:57.463Z,6.50
2022-08-27T00:52:27.205Z,9.00
2022-08-27T00:54:59.548Z,8.87
2022-08-27T00:57:27.557Z,8.37
2022-08-27T00:59:55.664Z,7.03
2022-08-27T01:02:26.162Z,7.10
2022-08-27T01:04:54.837Z,7.43
2022-08-27T01:07:23.214Z,7.50
2022-08-27T01:09:50.976Z,6.33
2022-08-27T01:12:21.143Z,6.70
2022-08-27T01:14:48.782Z,6.97
2022-08-27T01:17:16.841Z,6.70
2022-08-27T01:19:46.339Z,6.80
2022-08-27T01:22:21.824Z,8.57
2022-08-27T01:24:53.920Z,6.97
2022-08-27T01:27:22.951Z,8.70
2022-08-27T01:29:50.507Z,8.67
2022-08-27T01:32:19.139Z,7.87
2022-08-27T01:34:46.938Z,7.60
2022-08-27T01:37:15.072Z,7.47
2022-08-27T01:39:44.653Z,6.80
2022-08-27T01:42:16.071Z,7.57
2022-08-27T01:44:45.432Z,8.03
2022-08-27T01:47:12.929Z,7.97
2022-08-27T01:49:40.445Z,12.63
2022-08-27T01:52:07.965Z,12.20
2022-08-27T01:54:35.668Z,13.63
2022-08-27T01:57:03.281Z,8.97
2022-08-27T01:59:39.860Z,10.60
2022-08-27T02:02:08.392Z,8.80
2022-08-27T02:04:36.388Z,7.27
2022-08-27T02:07:03.947Z,8.03
2022-08-27T02:09:31.865Z,8.33
2022-08-27T02:12:00.585Z,6.47
2022-08-27T02:14:28.725Z,7.10
2022-08-27T02:16:57.767Z,9.23
2022-08-27T02:19:25.381Z,7.83
2022-08-27T02:21:53.028Z,6.80
2022-08-27T02:24:20.589Z,6.73
2022-08-27T02:26:49.254Z,7.13
2022-08-27T02:29:16.745Z,7.17
2022-08-27T02:31:44.369Z,7.67
2022-08-27T02:34:13.524Z,11.80
2022-08-27T02:36:40.990Z,5.93
2022-08-27T02:39:08.808Z,6.17
2022-08-27T02:41:36.520Z,7.13
2022-08-27T02:44:04.680Z,7.23
2022-08-27T02:46:38.696Z,8.43
2022-08-27T02:49:07.345Z,7.33
2022-08-27T02:51:36.284Z,9.50
2022-08-27T02:54:04.613Z,7.70
2022-08-27T02:56:34.447Z,6.70
2022-08-27T02:59:02.057Z,9.13
2022-08-27T03:01:29.642Z,11.90
2022-08-27T03:03:57.604Z,11.20
2022-08-27T03:06:25.165Z,9.27
2022-08-27T03:08:54.080Z,9.10
2022-08-27T03:11:22.428Z,12.70
2022-08-27T03:13:50.174Z,9.33
2022-08-27T03:16:17.814Z,10.90
2022-08-27T03:18:44.806Z,10.63
2022-08-27T03:21:17.209Z,12.30
2022-08-27T03:23:44.709Z,13.80
2022-08-27T03:26:13.677Z,13.40
2022-08-27T03:28:41.248Z,14.70
2022-08-27T03:31:09.658Z,14.80
2022-08-27T03:33:38.356Z,14.07
2022-08-27T03:36:06.851Z,12.53
2022-08-27T03:38:35.328Z,17.47
2022-08-27T03:41:02.955Z,16.80
2022-08-27T03:43:31.867Z,16.80
2022-08-27T03:46:01.674Z,15.50
2022-08-27T03:48:29.935Z,15.33
2022-08-27T03:50:57.522Z,20.47
2022-08-27T03:53:26.087Z,15.80
2022-08-27T03:55:53.789Z,21.27
2022-08-27T03:58:21.282Z,23.07
2022-08-27T04:00:50.365Z,18.83
2022-08-27T04:03:18.061Z,19.17
2022-08-27T04:05:45.634Z,18.33
2022-08-27T04:08:13.434Z,16.50
2022-08-27T04:10:41.459Z,19.30
2022-08-27T04:13:09.015Z,18.07
2022-08-27T04:15:40.745Z,23.40
2022-08-27T04:18:10.053Z,20.50
2022-08-27T04:20:37.717Z,21.47
2022-08-27T04:23:05.746Z,19.30
2022-08-27T04:25:33.650Z,18.90
2022-08-27T04:28:01.197Z,23.27
2022-08-27T04:30:28.695Z,17.13
2022-08-27T04:32:56.268Z,18.17
2022-08-27T04:35:25.372Z,16.80
2022-08-27T04:37:52.912Z,17.33
2022-08-27T04:40:20.562Z,15.60
2022-08-27T04:42:48.109Z,16.87
2022-08-27T04:45:15.664Z,17.40
2022-08-27T04:47:43.203Z,20.00
2022-08-27T04:50:11.356Z,15.83
2022-08-27T04:52:42.299Z,16.83
2022-08-27T04:55:10.513Z,18.83
2022-08-27T04:57:38.281Z,20.43
2022-08-27T05:00:07.075Z,15.03
2022-08-27T05:02:34.620Z,17.97
2022-08-27T05:05:02.217Z,16.87
2022-08-27T05:07:29.779Z,16.70
2022-08-27T05:09:58.815Z,16.90
2022-08-27T05:12:26.396Z,17.23
2022-08-27T05:14:55.341Z,15.73
2022-08-27T05:17:23.019Z,21.10
2022-08-27T05:19:50.495Z,16.10
2022-08-27T05:22:18.025Z,15.60
2022-08-27T05:24:50.317Z,15.13
2022-08-27T05:27:19.490Z,13.77
2022-08-27T05:29:46.978Z,14.83
2022-08-27T05:32:14.512Z,16.00
2022-08-27T05:34:42.004Z,14.60
2022-08-27T05:37:09.527Z,15.20
2022-08-27T05:39:37.105Z,22.87
2022-08-27T05:42:04.903Z,15.37
2022-08-27T05:44:41.989Z,23.00
2022-08-27T05:47:10.055Z,20.03
2022-08-27T05:49:37.621Z,13.70
2022-08-27T05:52:08.826Z,14.33
2022-08-27T05:54:36.436Z,15.63
2022-08-27T05:57:03.966Z,23.40
2022-08-27T05:59:48.752Z,19.23
2022-08-27T06:02:18.911Z,22.23
2022-08-27T06:04:46.886Z,16.50
2022-08-27T06:07:15.104Z,19.23
2022-08-27T06:09:42.909Z,22.07
2022-08-27T06:12:10.477Z,17.33
2022-08-27T06:14:38.411Z,18.23
2022-08-27T06:17:06.397Z,19.50
2022-08-27T06:19:36.529Z,17.67
2022-08-27T06:22:09.864Z,15.93
2022-08-27T06:24:39.308Z,17.67
2022-08-27T06:27:06.861Z,18.30
2022-08-27T06:29:35.116Z,19.33
2022-08-27T06:32:02.721Z,20.13
2022-08-27T06:34:30.323Z,15.87
2022-08-27T06:36:59.549Z,12.97
2022-08-27T06:39:27.096Z,17.53
2022-08-27T06:41:55.212Z,17.60
2022-08-27T06:44:24.298Z,17.93
2022-08-27T06:46:52.563Z,14.17
2022-08-27T06:49:20.075Z,16.33
2022-08-27T06:51:48.716Z,14.37
2022-08-27T06:54:19.905Z,12.10
2022-08-27T06:56:49.490Z,15.50
2022-08-27T06:59:18.368Z,13.90
2022-08-27T07:01:47.148Z,14.63
2022-08-27T07:04:17.867Z,12.47
2022-08-27T07:06:45.660Z,11.57
2022-08-27T07:09:14.171Z,14.50
2022-08-27T07:11:43.770Z,12.37
2022-08-27T07:14:11.547Z,13.07
2022-08-27T07:16:39.088Z,11.10
2022-08-27T07:19:08.507Z,9.80
2022-08-27T07:21:39.844Z,9.30
2022-08-27T07:24:09.072Z,10.67
2022-08-27T07:26:37.792Z,9.90
2022-08-27T07:29:07.376Z,14.27
2022-08-27T07:31:35.661Z,8.70
2022-08-27T07:34:03.612Z,10.10
2022-08-27T07:36:31.439Z,10.37
2022-08-27T07:39:01.103Z,9.13
2022-08-27T07:41:30.895Z,8.00
2022-08-27T07:44:34.397Z,8.03
2022-08-27T07:47:04.233Z,9.50
2022-08-27T07:49:31.887Z,9.33
2022-08-27T07:51:59.428Z,9.37
2022-08-27T07:54:27.371Z,10.47
2022-08-27T07:56:55.921Z,7.50
2022-08-27T07:59:24.074Z,8.80
2022-08-27T08:01:52.066Z,8.83
2022-08-27T08:04:22.595Z,6.93
2022-08-27T08:06:50.866Z,7.20
2022-08-27T08:09:18.465Z,6.93
2022-08-27T08:11:46.080Z,6.60
2022-08-27T08:14:13.616Z,7.63
2022-08-27T08:16:41.447Z,7.87
2022-08-27T08:19:09.401Z,7.07
2022-08-27T08:21:38.862Z,6.80
2022-08-27T08:24:06.653Z,6.53
2022-08-27T08:26:34.170Z,6.10
2022-08-27T08:29:04.775Z,7.63
2022-08-27T08:31:32.435Z,6.13
2022-08-27T08:33:59.980Z,8.73
2022-08-27T08:36:27.604Z,10.07
2022-08-27T08:38:56.565Z,10.50
2022-08-27T08:41:40.127Z,6.83
2022-08-27T08:44:11.230Z,6.07
2022-08-27T08:46:42.211Z,9.20
2022-08-27T08:49:15.243Z,7.23
2022-08-27T08:51:43.255Z,6.70
2022-08-27T08:54:16.883Z,9.07
2022-08-27T08:56:52.993Z,6.83
2022-08-27T08:59:26.787Z,6.30
2022-08-27T09:01:54.741Z,6.73
2022-08-27T09:04:24.859Z,6.63
2022-08-27T09:06:55.807Z,7.20
2022-08-27T09:09:28.504Z,5.93
2022-08-27T09:11:59.716Z,6.30
2022-08-27T09:14:33.184Z,5.50
2022-08-27T09:17:00.947Z,5.97
2022-08-27T09:19:29.638Z,7.67
2022-08-27T09:22:01.111Z,5.57
2022-08-27T09:24:35.709Z,5.40
2022-08-27T09:27:03.373Z,8.80
2022-08-27T09:29:30.811Z,5.20
2022-08-27T09:31:59.507Z,6.27
2022-08-27T09:34:28.762Z,6.73
2022-08-27T09:37:00.695Z,5.27
2022-08-27T09:39:33.643Z,8.60
2022-08-27T09:42:02.259Z,6.70
2022-08-27T09:44:32.404Z,8.40
2022-08-27T09:47:02.303Z,5.80
2022-08-27T09:49:30.388Z,5.30
2022-08-27T09:51:58.348Z,6.03
2022-08-27T09:54:28.444Z,8.40
2022-08-27T09:56:59.050Z,8.30
2022-08-27T09:59:28.066Z,6.30
2022-08-27T10:02:01.176Z,4.63
2022-08-27T10:04:38.110Z,9.00
2022-08-27T10:07:22.288Z,16.03
2022-08-27T10:09:52.973Z,6.00
2022-08-27T10:12:24.262Z,5.70
2022-08-27T10:14:54.553Z,5.60
2022-08-27T10:17:24.718Z,4.97
2022-08-27T10:20:00.757Z,4.60
2022-08-27T10:22:33.799Z,5.33
2022-08-27T10:25:06.969Z,5.60
2022-08-27T10:27:39.481Z,4.03
2022-08-27T10:30:08.618Z,3.70
2022-08-27T10:32:43.823Z,4.40
2022-08-27T10:35:16.273Z,3.57
2022-08-27T10:37:49.136Z,3.33
2022-08-27T10:40:18.185Z,4.73
2022-08-27T10:42:52.053Z,3.90
2022-08-27T10:45:31.879Z,5.53
2022-08-27T10:48:08.501Z,4.00
2022-08-27T10:50:40.630Z,6.27
2022-08-27T10:53:10.788Z,4.43
2022-08-27T10:55:40.680Z,8.90
2022-08-27T10:58:17.889Z,9.03
2022-08-27T11:00:49.825Z,4.73
2022-08-27T11:03:20.371Z,4.40
2022-08-27T11:05:49.813Z,4.93
2022-08-27T11:08:20.589Z,5.17
2022-08-27T11:10:48.964Z,4.50
2022-08-27T11:13:21.253Z,6.60
2022-08-27T11:15:50.312Z,5.60
2022-08-27T11:18:20.756Z,5.63
2022-08-27T11:20:53.684Z,6.37
2022-08-27T11:23:24.373Z,4.93
2022-08-27T11:25:54.047Z,7.10
2022-08-27T11:28:29.942Z,5.20
2022-08-27T11:31:02.586Z,6.93
2022-08-27T11:33:34.276Z,7.30
2022-08-27T11:36:10.589Z,5.30
2022-08-27T11:38:46.124Z,7.37
2022-08-27T11:41:18.632Z,6.47
2022-08-27T11:43:47.928Z,8.83
2022-08-27T11:46:25.270Z,9.27
2022-08-27T11:48:57.954Z,6.43
2022-08-27T11:51:29.903Z,8.43
2022-08-27T11:53:59.201Z,9.40
2022-08-27T11:56:37.330Z,6.30
2022-08-27T11:59:11.810Z,7.23
2022-08-27T12:01:40.609Z,7.17
2022-08-27T12:04:19.875Z,8.03
2022-08-27T12:06:52.231Z,6.60
2022-08-27T12:09:20.630Z,7.33
2022-08-27T12:11:56.438Z,8.30
2022-08-27T12:14:32.785Z,7.43
2022-08-27T12:17:03.746Z,9.30
2022-08-27T12:19:34.352Z,6.70
2022-08-27T12:22:07.519Z,6.97
2022-08-27T12:24:41.981Z,6.70
2022-08-27T12:27:17.313Z,6.30
2022-08-27T12:29:49.628Z,7.57
2022-08-27T12:32:26.098Z,12.13
2022-08-27T12:34:59.671Z,6.50
2022-08-27T12:37:28.797Z,9.80
2022-08-27T12:39:58.927Z,7.37
2022-08-27T12:42:26.477Z,5.43
2022-08-27T12:44:59.705Z,9.17
2022-08-27T12:47:27.499Z,8.60
2022-08-27T12:49:57.984Z,6.40
2022-08-27T12:52:38.156Z,10.17
2022-08-27T12:55:10.941Z,9.23
2022-08-27T12:57:43.046Z,7.30
2022-08-27T13:00:14.624Z,9.13
2022-08-27T13:02:55.110Z,8.33
2022-08-27T13:05:23.443Z,8.00
2022-08-27T13:07:51.825Z,5.37
2022-08-27T13:10:29.621Z,7.10
2022-08-27T13:13:08.528Z,7.47
2022-08-27T13:15:38.065Z,5.90
2022-08-27T13:18:06.825Z,6.87
2022-08-27T13:20:37.293Z,7.07
2022-08-27T13:23:04.896Z,7.20
2022-08-27T13:25:34.491Z,6.33
2022-08-27T13:28:07.752Z,6.00
2022-08-27T13:30:37.791Z,10.70
2022-08-27T13:33:06.103Z,6.70
2022-08-27T13:35:33.791Z,6.97
2022-08-27T13:38:02.237Z,5.53
2022-08-27T13:40:34.553Z,6.80
2022-08-27T13:43:04.449Z,8.50
2022-08-27T13:45:38.444Z,6.40
2022-08-27T13:48:06.669Z,7.67
2022-08-27T13:50:35.996Z,8.23
2022-08-27T13:53:19.400Z,6.97
2022-08-27T13:55:48.698Z,6.93
2022-08-27T13:58:20.213Z,6.47
2022-08-27T14:00:49.106Z,8.97
2022-08-27T14:03:24.920Z,7.40
2022-08-27T14:05:52.608Z,11.60
2022-08-27T14:08:20.787Z,6.47
2022-08-27T14:10:50.141Z,6.80
2022-08-27T14:13:22.493Z,11.40
2022-08-27T14:15:51.928Z,9.83
2022-08-27T14:18:36.800Z,8.80
2022-08-27T14:21:11.487Z,5.27
2022-08-27T14:23:39.023Z,8.33
2022-08-27T14:26:08.664Z,7.33
2022-08-27T14:28:36.859Z,4.70
2022-08-27T14:31:05.858Z,5.43
2022-08-27T14:33:33.413Z,5.07
2022-08-27T14:36:01.102Z,4.63
2022-08-27T14:38:31.553Z,5.30
2022-08-27T14:40:59.447Z,6.47
2022-08-27T14:43:27.877Z,7.23
2022-08-27T14:45:55.655Z,6.37
2022-08-27T14:48:28.522Z,5.37
2022-08-27T14:50:56.854Z,5.50
2022-08-27T14:53:24.575Z,5.10
2022-08-27T14:55:52.384Z,5.70
2022-08-27T14:58:20.332Z,8.60
2022-08-27T15:00:47.866Z,4.83
2022-08-27T15:03:15.456Z,6.10
2022-08-27T15:05:45.000Z,9.20
2022-08-27T15:08:13.664Z,4.60
2022-08-27T15:10:41.786Z,6.30
2022-08-27T15:13:11.321Z,5.60
2022-08-27T15:15:39.047Z,13.60
2022-08-27T15:18:06.892Z,5.60
2022-08-27T15:20:34.664Z,11.60
2022-08-27T15:23:03.589Z,5.30
2022-08-27T15:25:31.193Z,6.50
2022-08-27T15:27:58.977Z,8.47
2022-08-27T15:30:27.678Z,6.40
2022-08-27T15:32:55.493Z,6.13
2022-08-27T15:35:26.292Z,6.00
2022-08-27T15:37:54.424Z,8.13
2022-08-27T15:40:24.044Z,6.17
2022-08-27T15:42:54.388Z,7.50
2022-08-27T15:45:22.052Z,6.83
2022-08-27T15:47:53.400Z,5.67
2022-08-27T15:50:21.152Z,12.07
2022-08-27T15:52:50.140Z,6.93
2022-08-27T15:55:21.448Z,9.60
2022-08-27T15:57:50.433Z,9.20
2022-08-27T16:00:18.505Z,8.10
2022-08-27T16:02:46.760Z,8.40
2022-08-27T16:05:15.311Z,7.70
2022-08-27T16:07:42.939Z,5.20
2022-08-27T16:10:10.829Z,9.93
2022-08-27T16:12:38.381Z,7.47
2022-08-27T16:15:08.527Z,7.03
2022-08-27T16:17:36.666Z,8.10
2022-08-27T16:20:05.161Z,7.37
2022-08-27T16:22:34.728Z,12.63
2022-08-27T16:25:02.850Z,7.43
2022-08-27T16:27:30.328Z,9.80
2022-08-27T16:29:57.950Z,8.47
2022-08-27T16:32:28.872Z,10.23
2022-08-27T16:34:56.883Z,12.10
2022-08-27T16:37:24.508Z,9.07
2022-08-27T16:39:52.083Z,10.40
2022-08-27T16:42:19.731Z,11.23
2022-08-27T16:44:47.340Z,8.40
2022-08-27T16:47:14.869Z,16.87
2022-08-27T16:50:06.698Z,12.40
2022-08-27T16:52:36.142Z,11.63
2022-08-27T16:55:03.820Z,9.07
2022-08-27T16:57:31.344Z,12.27
2022-08-27T16:59:58.825Z,12.60
2022-08-27T17:02:30.163Z,11.13
2022-08-27T17:05:17.342Z,8.73
2022-08-27T17:07:48.897Z,11.43
2022-08-27T17:10:17.241Z,9.90
2022-08-27T17:12:46.172Z,10.70
2022-08-27T17:15:14.525Z,19.10
2022-08-27T17:17:42.292Z,16.07
2022-08-27T17:20:11.648Z,8.67
2022-08-27T17:22:39.378Z,13.07
2022-08-27T17:25:07.541Z,14.53
2022-08-27T17:27:35.116Z,14.13
2022-08-27T17:30:02.596Z,11.63
2022-08-27T17:32:32.134Z,12.57
2022-08-27T17:35:05.167Z,10.63
2022-08-27T17:37:35.412Z,14.23
2022-08-27T17:40:03.647Z,14.60
2022-08-27T17:42:31.845Z,8.23
2022-08-27T17:45:00.054Z,7.50
2022-08-27T17:47:27.851Z,8.50
2022-08-27T17:49:55.397Z,9.47
2022-08-27T17:52:23.398Z,7.80
2022-08-27T17:54:54.109Z,8.23
2022-08-27T17:57:22.519Z,7.70
2022-08-27T17:59:50.561Z,8.80
2022-08-27T18:02:21.039Z,6.77
2022-08-27T18:04:48.629Z,7.57
2022-08-27T18:07:16.426Z,8.63
2022-08-27T18:09:44.083Z,6.53
2022-08-27T18:12:15.123Z,6.63
2022-08-27T18:14:42.768Z,6.67
2022-08-27T18:17:10.326Z,7.83
2022-08-27T18:19:45.561Z,6.77
2022-08-27T18:22:13.412Z,7.47
2022-08-27T18:24:40.930Z,7.57
2022-08-27T18:27:08.667Z,7.73
2022-08-27T18:29:37.512Z,8.93
2022-08-27T18:32:05.379Z,6.80
2022-08-27T18:34:33.432Z,8.27
2022-08-27T18:37:00.953Z,6.17
2022-08-27T18:39:29.737Z,11.30
2022-08-27T18:41:57.306Z,8.60
2022-08-27T18:44:24.848Z,8.60
2022-08-27T18:46:53.692Z,12.33
2022-08-27T18:49:22.225Z,9.30
2022-08-27T18:51:52.673Z,6.17
2022-08-27T18:54:21.018Z,9.37
2022-08-27T18:56:48.641Z,6.83
2022-08-27T18:59:16.211Z,6.67
2022-08-27T19:01:44.184Z,9.40
2022-08-27T19:04:13.436Z,6.67
2022-08-27T19:06:40.916Z,7.10
2022-08-27T19:09:08.688Z,7.03
2022-08-27T19:11:36.263Z,6.03
2022-08-27T19:14:03.934Z,5.80
2022-08-27T19:16:35.573Z,6.10
2022-08-27T19:19:04.212Z,6.27
2022-08-27T19:21:33.441Z,6.00
2022-08-27T19:24:01.330Z,8.40
2022-08-27T19:26:28.842Z,6.53
2022-08-27T19:28:56.420Z,7.67
2022-08-27T19:31:24.090Z,6.53
2022-08-27T19:33:52.126Z,6.27
2022-08-27T19:36:19.903Z,6.70
2022-08-27T19:38:50.471Z,9.63
2022-08-27T19:41:18.575Z,6.10
2022-08-27T19:43:46.202Z,5.93
2022-08-27T19:46:14.612Z,7.30
2022-08-27T19:48:42.332Z,5.47
2022-08-27T19:51:10.103Z,6.80
2022-08-27T19:53:38.134Z,5.70
2022-08-27T19:56:08.459Z,7.20
2022-08-27T19:58:36.092Z,12.03
2022-08-27T20:01:03.796Z,6.53
2022-08-27T20:03:31.904Z,7.37
2022-08-27T20:05:59.598Z,6.90
2022-08-27T20:08:27.267Z,8.00
2022-08-27T20:10:54.821Z,6.13
2022-08-27T20:13:23.693Z,6.57
2022-08-27T20:15:51.576Z,5.30
2022-08-27T20:18:20.031Z,5.73
2022-08-27T20:20:47.557Z,7.50
2022-08-27T20:23:15.692Z,7.10
2022-08-27T20:25:44.628Z,6.60
2022-08-27T20:28:37.948Z,8.53
2022-08-27T20:31:01.560Z,7.10
2022-08-27T20:33:29.129Z,8.57
2022-08-27T20:35:56.983Z,6.30
2022-08-27T20:38:24.769Z,6.10
2022-08-27T20:40:52.624Z,6.10
2022-08-27T20:43:20.140Z,5.40
2022-08-27T20:45:47.793Z,6.20
2022-08-27T20:48:16.766Z,5.80
2022-08-27T20:50:44.563Z,5.90
2022-08-27T20:53:12.871Z,6.40
2022-08-27T20:55:40.608Z,5.33
2022-08-27T20:58:25.648Z,5.17
2022-08-27T21:00:54.163Z,5.17
2022-08-27T21:03:23.446Z,5.77
2022-08-27T21:05:51.187Z,7.90
2022-08-27T21:08:19.961Z,5.60
2022-08-27T21:10:49.139Z,6.73
2022-08-27T21:13:17.398Z,5.70
2022-08-27T21:15:44.936Z,5.50
2022-08-27T21:18:12.920Z,6.07
2022-08-27T21:20:42.139Z,6.07
2022-08-27T21:23:09.789Z,5.70
2022-08-27T21:25:37.412Z,5.30
2022-08-27T21:28:07.408Z,5.47
2022-08-27T21:30:35.229Z,5.93
2022-08-27T21:33:02.905Z,5.20
2022-08-27T21:35:31.374Z,5.50
2022-08-27T21:38:01.113Z,5.90
2022-08-27T21:40:29.617Z,8.80
2022-08-27T21:42:57.558Z,5.40
2022-08-27T21:45:25.483Z,5.03
2022-08-27T21:47:54.071Z,5.20
2022-08-27T21:50:22.102Z,5.20
2022-08-27T21:52:49.832Z,5.23
2022-08-27T21:55:19.165Z,4.20
2022-08-27T21:57:46.653Z,4.83
2022-08-27T22:00:22.515Z,4.87
2022-08-27T22:02:50.167Z,4.73
2022-08-27T22:05:17.766Z,4.47
2022-08-27T22:07:45.290Z,5.30
2022-08-27T22:10:12.893Z,4.23
2022-08-27T22:12:41.905Z,4.03
2022-08-27T22:15:10.378Z,4.83
2022-08-27T22:17:37.937Z,4.90
2022-08-27T22:20:06.709Z,4.90
2022-08-27T22:22:34.451Z,5.43
2022-08-27T22:25:02.016Z,4.63
2022-08-27T22:27:29.605Z,4.63
2022-08-27T22:29:58.457Z,4.57
2022-08-27T22:32:25.991Z,4.30
2022-08-27T22:34:53.575Z,8.57
2022-08-27T22:37:21.139Z,4.67
2022-08-27T22:39:48.703Z,4.50
2022-08-27T22:42:18.213Z,7.93
2022-08-27T22:44:46.509Z,5.27
2022-08-27T22:47:15.502Z,5.10
2022-08-27T22:49:43.259Z,4.43
2022-08-27T22:52:10.899Z,7.07
2022-08-27T22:54:38.432Z,4.77
2022-08-27T22:57:06.264Z,5.73
2022-08-27T22:59:38.292Z,5.00
2022-08-27T23:02:06.959Z,4.33
2022-08-27T23:04:54.080Z,4.73
2022-08-27T23:07:22.415Z,5.33
2022-08-27T23:09:49.933Z,5.53
2022-08-27T23:12:17.493Z,5.10
2022-08-27T23:14:45.011Z,3.80
2022-08-27T23:17:12.532Z,4.73
2022-08-27T23:19:41.619Z,4.40
2022-08-27T23:22:09.612Z,4.73
2022-08-27T23:24:57.369Z,3.87
2022-08-27T23:27:29.941Z,3.70
2022-08-27T23:29:57.801Z,4.63
2022-08-27T23:32:25.361Z,3.50
2022-08-27T23:34:54.252Z,7.30
2022-08-27T23:37:21.900Z,3.80
2022-08-27T23:39:49.512Z,4.50
2022-08-27T23:42:18.609Z,3.47
2022-08-27T23:44:46.260Z,3.70
2022-08-27T23:47:13.947Z,4.50
2022-08-27T23:49:42.199Z,4.27
2022-08-27T23:52:11.707Z,7.60
2022-08-27T23:54:39.234Z,3.53
2022-08-27T23:57:06.954Z,4.43
2022-08-27T23:59:34.596Z,3.80
